Time;durP1;ratioP1;P1;durP2;ratioP2;P2;SDS_P1;SDS_P2;PMS_P1;PMS_P2;Temp;Humidity;BMP_temperature;BMP_pressure;BME280_temperature;BME280_humidity;BME280_pressure;Samples;Min_cycle;Max_cycle;Signal;HPM_P1;HPM_P2
2022/03/28 00:00:55;;;;;;;17.38;9.07;;;18.70;50.60;;;;;;4895933;28;88536;-67
2022/03/28 00:03:22;;;;;;;15.82;8.52;;;18.70;50.60;;;;;;4894943;28;89412;-66
2022/03/28 00:05:47;;;;;;;14.05;7.72;;;18.70;50.60;;;;;;4895611;28;88247;-66
2022/03/28 00:08:14;;;;;;;13.73;7.55;;;18.70;50.60;;;;;;4894493;28;88613;-66
2022/03/28 00:10:39;;;;;;;15.25;8.32;;;18.70;50.60;;;;;;4895469;28;100160;-68
2022/03/28 00:13:05;;;;;;;13.77;7.72;;;18.70;50.50;;;;;;4895267;28;88119;-66
2022/03/28 00:15:31;;;;;;;14.40;7.85;;;18.70;50.50;;;;;;4895698;28;88691;-66
2022/03/28 00:17:57;;;;;;;15.43;7.70;;;18.70;50.50;;;;;;4895445;28;90543;-66
2022/03/28 00:20:24;;;;;;;12.52;7.43;;;18.70;50.40;;;;;;4895934;28;90232;-66
2022/03/28 00:22:50;;;;;;;13.50;7.45;;;18.70;50.40;;;;;;4896816;28;88354;-66
2022/03/28 00:25:16;;;;;;;12.38;7.22;;;18.70;50.40;;;;;;4895821;28;88020;-66
2022/03/28 00:27:41;;;;;;;13.70;6.88;;;18.70;50.50;;;;;;4895380;28;95656;-67
2022/03/28 00:30:08;;;;;;;13.35;7.32;;;18.60;50.30;;;;;;4895320;28;90104;-67
2022/03/28 00:32:34;;;;;;;11.77;6.75;;;18.60;50.30;;;;;;4894283;28;88697;-66
2022/03/28 00:35:00;;;;;;;12.02;6.45;;;18.60;50.30;;;;;;4895990;28;87405;-66
2022/03/28 00:37:26;;;;;;;13.60;7.10;;;18.60;50.40;;;;;;4894743;28;88699;-66
2022/03/28 00:39:52;;;;;;;12.50;7.05;;;18.60;50.40;;;;;;4894684;28;88440;-66
2022/03/28 00:42:17;;;;;;;10.73;6.28;;;18.60;50.30;;;;;;4894885;28;88879;-66
2022/03/28 00:44:43;;;;;;;11.40;6.18;;;18.60;50.30;;;;;;4895096;28;88322;-66
2022/03/28 00:47:09;;;;;;;12.15;6.90;;;18.60;50.30;;;;;;4895161;28;89574;-66
2022/03/28 00:49:35;;;;;;;10.90;6.47;;;18.60;50.30;;;;;;4895015;28;88384;-66
2022/03/28 00:52:02;;;;;;;10.20;5.93;;;18.60;50.30;;;;;;4894137;28;88480;-66
2022/03/28 00:54:29;;;;;;;10.27;5.97;;;18.60;50.30;;;;;;4894270;28;88584;-67
2022/03/28 00:56:55;;;;;;;9.93;6.10;;;18.60;50.30;;;;;;4894806;28;90164;-66
2022/03/28 00:59:21;;;;;;;11.02;6.50;;;18.60;50.30;;;;;;4894232;28;89960;-66
2022/03/28 01:01:46;;;;;;;9.88;5.70;;;18.60;50.30;;;;;;4894652;28;88700;-66
2022/03/28 01:04:12;;;;;;;9.40;5.57;;;18.60;50.20;;;;;;4894147;28;88067;-67
2022/03/28 01:06:38;;;;;;;8.13;5.45;;;18.60;50.20;;;;;;4893582;28;94090;-66
2022/03/28 01:09:05;;;;;;;11.50;6.10;;;18.60;50.30;;;;;;4893898;28;89104;-64
2022/03/28 01:11:33;;;;;;;10.60;6.10;;;18.60;50.20;;;;;;4877220;28;88469;-66
2022/03/28 01:13:59;;;;;;;9.93;5.72;;;18.50;50.20;;;;;;4894221;28;88438;-67
2022/03/28 01:16:29;;;;;;;9.20;5.47;;;18.50;50.20;;;;;;4895064;28;89216;-66
2022/03/28 01:18:54;;;;;;;9.77;5.72;;;18.60;50.30;;;;;;4894110;28;89779;-66
2022/03/28 01:21:20;;;;;;;7.75;5.22;;;18.50;50.20;;;;;;4895069;28;88355;-66
2022/03/28 01:23:46;;;;;;;8.10;5.18;;;18.50;50.20;;;;;;4878459;28;88846;-67
2022/03/28 01:26:14;;;;;;;9.15;5.80;;;18.50;50.10;;;;;;4894231;28;89814;-67
2022/03/28 01:28:40;;;;;;;7.53;5.05;;;18.50;50.20;;;;;;4894058;28;88556;-66
2022/03/28 01:31:07;;;;;;;8.73;4.85;;;18.50;50.20;;;;;;4894080;28;89590;-67
2022/03/28 01:33:35;;;;;;;8.95;5.43;;;18.50;50.20;;;;;;4893802;28;88673;-66
2022/03/28 01:36:01;;;;;;;8.68;4.80;;;18.50;50.20;;;;;;4893103;28;90649;-67
2022/03/28 01:38:26;;;;;;;8.63;5.22;;;18.50;50.10;;;;;;4894011;28;88442;-67
2022/03/28 01:40:53;;;;;;;9.73;5.55;;;18.50;50.10;;;;;;4892555;28;88516;-67
2022/03/28 01:43:20;;;;;;;7.72;5.03;;;18.50;50.10;;;;;;4894516;28;88325;-66
2022/03/28 01:45:47;;;;;;;8.93;4.78;;;18.50;50.10;;;;;;4893653;28;88560;-66
2022/03/28 01:48:13;;;;;;;7.72;4.95;;;18.50;50.10;;;;;;4894300;28;88434;-67
2022/03/28 01:50:39;;;;;;;8.60;5.40;;;18.50;50.10;;;;;;4894969;28;88103;-66
2022/03/28 01:53:05;;;;;;;6.47;4.50;;;18.40;50.10;;;;;;4897396;28;88280;-67
2022/03/28 01:55:31;;;;;;;7.78;4.97;;;18.40;50.10;;;;;;4896410;28;92072;-66
2022/03/28 01:57:57;;;;;;;8.57;4.85;;;18.40;50.00;;;;;;4895832;28;90175;-66
2022/03/28 02:00:25;;;;;;;7.85;4.70;;;18.40;50.10;;;;;;4897059;28;88761;-66
2022/03/28 02:02:51;;;;;;;6.53;4.70;;;18.40;50.00;;;;;;4897972;28;88289;-66
2022/03/28 02:05:17;;;;;;;8.70;5.15;;;18.40;50.10;;;;;;4897366;28;88838;-66
2022/03/28 02:07:47;;;;;;;7.95;4.32;;;18.40;50.00;;;;;;4897938;28;88910;-67
2022/03/28 02:10:16;;;;;;;8.02;4.75;;;18.40;50.00;;;;;;4896554;28;88425;-69
2022/03/28 02:12:43;;;;;;;6.70;4.53;;;18.40;50.00;;;;;;4897910;28;87376;-66
2022/03/28 02:15:10;;;;;;;7.13;4.30;;;18.40;50.00;;;;;;4896343;28;88873;-67
2022/03/28 02:17:37;;;;;;;7.32;4.40;;;18.40;50.00;;;;;;4898463;28;88937;-66
2022/03/28 02:20:08;;;;;;;6.60;4.53;;;18.40;50.00;;;;;;4896638;28;89374;-66
2022/03/28 02:22:35;;;;;;;6.22;4.15;;;18.40;50.00;;;;;;4896287;28;88285;-66
2022/03/28 02:25:01;;;;;;;6.20;4.10;;;18.40;50.00;;;;;;4896866;28;88751;-66
2022/03/28 02:27:27;;;;;;;6.20;4.10;;;18.40;50.00;;;;;;4896209;28;89386;-66
2022/03/28 02:29:53;;;;;;;5.28;3.95;;;18.40;50.10;;;;;;4895620;28;88508;-67
2022/03/28 02:32:19;;;;;;;5.78;4.00;;;18.40;50.10;;;;;;4896580;28;88078;-67
2022/03/28 02:34:45;;;;;;;5.72;4.15;;;18.40;50.10;;;;;;4897337;28;89374;-66
2022/03/28 02:37:11;;;;;;;7.25;3.80;;;18.40;50.00;;;;;;4896894;28;88521;-66
2022/03/28 02:39:36;;;;;;;6.07;4.18;;;18.30;49.90;;;;;;4897018;28;88145;-66
2022/03/28 02:42:03;;;;;;;5.45;3.72;;;18.40;50.00;;;;;;4896140;28;88324;-67
2022/03/28 02:44:29;;;;;;;4.75;3.60;;;18.30;49.90;;;;;;4896118;28;90459;-66
2022/03/28 02:46:54;;;;;;;5.15;3.70;;;18.30;49.90;;;;;;4896328;28;89126;-67
2022/03/28 02:49:20;;;;;;;5.93;3.60;;;18.30;50.00;;;;;;4897122;28;88719;-66
2022/03/28 02:51:46;;;;;;;4.78;3.40;;;18.30;49.90;;;;;;4897069;28;88123;-68
2022/03/28 02:54:12;;;;;;;5.00;3.85;;;18.30;50.00;;;;;;4895978;28;89706;-67
2022/03/28 02:56:37;;;;;;;5.55;3.58;;;18.30;49.90;;;;;;4896376;28;89862;-66
2022/03/28 02:59:03;;;;;;;5.57;3.90;;;18.30;50.00;;;;;;4896362;28;88517;-67
2022/03/28 03:01:29;;;;;;;5.75;3.67;;;18.30;50.00;;;;;;4896598;28;87282;-66
2022/03/28 03:03:54;;;;;;;5.30;3.33;;;18.30;50.00;;;;;;4895402;28;89844;-66
2022/03/28 03:06:20;;;;;;;5.10;3.30;;;18.30;50.00;;;;;;4895669;28;100410;-66
2022/03/28 03:08:45;;;;;;;5.63;3.60;;;18.30;49.90;;;;;;4896358;28;94365;-66
2022/03/28 03:11:11;;;;;;;4.18;3.05;;;18.30;50.00;;;;;;4896525;28;88568;-66
2022/03/28 03:13:37;;;;;;;5.00;3.47;;;18.30;49.90;;;;;;4896655;28;88672;-66
2022/03/28 04:20:55;;;;;;;3.78;2.50;;;18.10;49.80;;;;;;4854496;29;88228;-66
2022/03/28 04:23:22;;;;;;;4.10;2.40;;;18.10;49.90;;;;;;4858371;29;88024;-65
2022/03/28 04:25:47;;;;;;;3.25;2.47;;;18.10;49.90;;;;;;4858451;29;88128;-66
2022/03/28 04:28:13;;;;;;;3.58;2.38;;;18.10;49.90;;;;;;4857569;29;90702;-66
2022/03/28 04:30:39;;;;;;;4.15;2.78;;;18.10;49.80;;;;;;4857781;29;89206;-70
2022/03/28 04:33:07;;;;;;;3.15;2.20;;;18.10;49.80;;;;;;4857519;29;88088;-66
2022/03/28 04:35:33;;;;;;;4.10;2.58;;;18.10;49.80;;;;;;4858468;29;87992;-66
2022/03/28 04:38:00;;;;;;;3.95;2.30;;;18.10;49.80;;;;;;4857651;29;88936;-65
2022/03/28 04:40:26;;;;;;;3.13;2.50;;;18.10;49.80;;;;;;4856806;29;90043;-66
2022/03/28 04:42:54;;;;;;;3.00;2.30;;;18.10;49.80;;;;;;4857081;29;88316;-66
2022/03/28 04:45:19;;;;;;;3.80;2.45;;;18.10;49.80;;;;;;4857899;29;87399;-67
2022/03/28 04:47:45;;;;;;;2.85;2.40;;;18.10;49.90;;;;;;4857129;29;88998;-67
2022/03/28 04:50:11;;;;;;;2.97;2.28;;;18.10;49.80;;;;;;4857243;29;89224;-66
2022/03/28 04:52:36;;;;;;;2.85;2.33;;;18.10;49.80;;;;;;4857113;29;89266;-66
2022/03/28 04:55:04;;;;;;;3.28;2.67;;;18.10;49.80;;;;;;4857276;29;88048;-66
2022/03/28 04:57:30;;;;;;;3.22;2.50;;;18.10;49.80;;;;;;4857073;29;88751;-66
2022/03/28 04:59:56;;;;;;;2.97;2.20;;;18.00;49.80;;;;;;4857188;29;89617;-66
2022/03/28 05:02:21;;;;;;;3.40;2.30;;;18.00;49.80;;;;;;4857114;29;88668;-66
2022/03/28 05:04:47;;;;;;;2.90;2.20;;;18.10;49.90;;;;;;4857711;29;88725;-66
2022/03/28 05:07:12;;;;;;;4.28;2.60;;;18.00;49.70;;;;;;4857494;29;88620;-67
2022/03/28 05:09:38;;;;;;;2.55;2.30;;;18.00;49.70;;;;;;4858350;29;90136;-65
2022/03/28 05:12:04;;;;;;;4.45;2.42;;;18.00;50.00;;;;;;4857486;29;88341;-66
2022/03/28 05:14:30;;;;;;;2.67;2.17;;;18.00;50.10;;;;;;4857970;29;88076;-66
2022/03/28 05:16:55;;;;;;;3.25;2.22;;;18.00;50.10;;;;;;4857322;29;89222;-66
2022/03/28 05:19:21;;;;;;;3.25;2.55;;;18.00;50.10;;;;;;4872190;28;104038;-67
2022/03/28 05:21:46;;;;;;;3.10;2.55;;;18.10;50.20;;;;;;4876014;28;106111;-67
2022/03/28 05:24:12;;;;;;;3.42;2.60;;;18.10;50.20;;;;;;4877185;28;89205;-65
2022/03/28 05:26:37;;;;;;;2.85;2.47;;;18.10;50.20;;;;;;4879500;28;88585;-67
2022/03/28 05:29:03;;;;;;;3.40;2.72;;;18.10;50.10;;;;;;4880444;28;89563;-67
2022/03/28 05:31:29;;;;;;;3.30;2.40;;;18.10;50.10;;;;;;4879579;28;88168;-67
2022/03/28 05:33:54;;;;;;;3.15;2.40;;;18.10;50.10;;;;;;4879355;28;88023;-66
2022/03/28 05:36:21;;;;;;;3.13;2.35;;;18.10;50.20;;;;;;4879314;28;91184;-66
2022/03/28 05:38:47;;;;;;;3.40;2.47;;;18.10;50.10;;;;;;4861317;28;88554;-66
2022/03/28 05:41:12;;;;;;;4.03;2.50;;;18.10;50.10;;;;;;4878347;28;89022;-67
2022/03/28 05:43:38;;;;;;;3.58;2.40;;;18.00;49.90;;;;;;4879006;28;88698;-66
2022/03/28 05:46:05;;;;;;;3.60;2.25;;;18.00;50.20;;;;;;4879012;28;89564;-67
2022/03/28 05:48:30;;;;;;;2.65;2.03;;;18.00;50.30;;;;;;4878663;28;88483;-67
2022/03/28 05:50:57;;;;;;;3.42;2.22;;;18.10;50.40;;;;;;4878530;28;88705;-67
2022/03/28 05:53:23;;;;;;;4.15;2.25;;;18.10;50.30;;;;;;4878680;28;88339;-67
2022/03/28 05:55:48;;;;;;;2.60;2.17;;;18.10;50.20;;;;;;4878447;28;88567;-66
2022/03/28 05:58:14;;;;;;;2.30;1.85;;;18.10;50.10;;;;;;4879265;28;87513;-67
2022/03/28 06:00:41;;;;;;;5.03;2.28;;;18.10;50.10;;;;;;4878207;28;89401;-66
2022/03/28 06:03:10;;;;;;;4.85;2.47;;;18.10;50.10;;;;;;4881025;28;88687;-66
2022/03/28 06:05:36;;;;;;;10.98;2.80;;;18.10;50.10;;;;;;4878520;28;89697;-67
2022/03/28 06:08:03;;;;;;;6.93;2.40;;;18.10;50.10;;;;;;4878195;28;90844;-67
2022/03/28 06:10:29;;;;;;;4.03;2.17;;;18.20;50.40;;;;;;4878024;28;88649;-67
2022/03/28 06:12:55;;;;;;;8.25;2.35;;;18.20;50.50;;;;;;4879002;28;88436;-66
2022/03/28 06:15:22;;;;;;;3.92;2.30;;;18.20;50.80;;;;;;4878335;28;89248;-69
2022/03/28 06:17:48;;;;;;;6.35;2.38;;;18.20;50.90;;;;;;4878070;28;89371;-66
2022/03/28 06:20:14;;;;;;;5.28;2.90;;;18.20;51.00;;;;;;4878291;28;88208;-66
2022/03/28 06:22:40;;;;;;;4.80;2.72;;;18.20;51.00;;;;;;4878938;28;87729;-66
2022/03/28 06:25:08;;;;;;;6.07;2.35;;;18.30;51.10;;;;;;4877645;28;89285;-66
2022/03/28 06:27:37;;;;;;;3.75;2.10;;;18.30;50.90;;;;;;4859914;28;89710;-66
2022/03/28 06:30:03;;;;;;;3.60;2.20;;;18.30;50.70;;;;;;4877382;28;89350;-66
2022/03/28 06:32:29;;;;;;;5.75;2.50;;;18.30;50.70;;;;;;4878575;28;88303;-66
2022/03/28 06:34:54;;;;;;;2.90;2.10;;;18.30;50.70;;;;;;4877365;28;97690;-66
2022/03/28 06:37:23;;;;;;;4.55;2.30;;;18.30;50.60;;;;;;4876952;28;99653;-66
2022/03/28 06:39:49;;;;;;;2.85;2.00;;;18.30;50.60;;;;;;4877990;28;88006;-66
2022/03/28 06:42:15;;;;;;;3.10;2.15;;;18.30;50.50;;;;;;4878269;28;88360;-68
2022/03/28 06:44:41;;;;;;;3.55;2.40;;;18.30;50.50;;;;;;4876889;28;89795;-67
2022/03/28 06:47:07;;;;;;;2.78;2.03;;;18.30;50.50;;;;;;4878462;28;88799;-66
2022/03/28 06:49:34;;;;;;;3.90;1.90;;;18.30;50.50;;;;;;4876437;28;93163;-66
2022/03/28 06:51:59;;;;;;;4.03;2.30;;;18.30;50.50;;;;;;4877539;28;88670;-68
2022/03/28 06:54:25;;;;;;;3.63;2.08;;;18.30;50.50;;;;;;4876096;28;89872;-67
2022/03/28 06:56:51;;;;;;;6.65;2.35;;;18.30;50.40;;;;;;4877979;28;96371;-66
2022/03/28 06:59:19;;;;;;;4.65;2.28;;;18.30;50.40;;;;;;4876775;28;96996;-67
2022/03/28 07:01:45;;;;;;;3.88;2.38;;;18.30;50.40;;;;;;4878759;28;88432;-66
2022/03/28 07:04:10;;;;;;;3.60;2.20;;;18.30;50.30;;;;;;4877632;28;94387;-66
2022/03/28 07:06:40;;;;;;;2.72;2.00;;;18.30;50.30;;;;;;4877473;28;97258;-66
2022/03/28 07:09:05;;;;;;;4.43;2.58;;;18.30;50.30;;;;;;4877039;28;88158;-67
2022/03/28 07:11:32;;;;;;;4.30;2.10;;;18.20;50.20;;;;;;4878484;28;87733;-66
2022/03/28 07:13:58;;;;;;;4.80;2.20;;;18.20;50.50;;;;;;4876759;28;88799;-65
2022/03/28 07:16:24;;;;;;;3.47;2.25;;;18.20;50.20;;;;;;4877750;28;89673;-66
2022/03/28 07:18:50;;;;;;;3.75;2.28;;;18.20;50.20;;;;;;4874871;28;88759;-66
2022/03/28 07:21:16;;;;;;;3.47;2.60;;;18.20;50.20;;;;;;4877266;28;88157;-64
2022/03/28 07:23:42;;;;;;;3.53;2.17;;;18.20;50.10;;;;;;4876357;28;89965;-67
2022/03/28 07:26:07;;;;;;;3.35;2.35;;;18.20;50.20;;;;;;4877616;28;89472;-65
2022/03/28 07:28:35;;;;;;;4.47;2.30;;;18.10;50.10;;;;;;4876781;28;88546;-68
2022/03/28 07:31:01;;;;;;;3.88;2.22;;;18.10;50.10;;;;;;4877617;28;88168;-66
2022/03/28 07:33:26;;;;;;;3.75;2.28;;;18.10;50.20;;;;;;4875677;28;89624;-66
2022/03/28 07:35:52;;;;;;;3.47;2.30;;;18.10;50.20;;;;;;4877317;28;88470;-66
2022/03/28 07:38:19;;;;;;;4.63;2.40;;;18.10;50.20;;;;;;4876288;28;88047;-66
2022/03/28 07:40:46;;;;;;;2.72;2.22;;;18.10;50.20;;;;;;4877470;28;88544;-68
2022/03/28 07:43:12;;;;;;;3.20;2.22;;;18.10;50.10;;;;;;4876345;28;90348;-66
2022/03/28 07:45:37;;;;;;;3.50;2.53;;;18.10;50.20;;;;;;4877763;28;88159;-66
2022/03/28 07:48:06;;;;;;;2.60;2.20;;;18.10;50.20;;;;;;4876424;28;88492;-66
2022/03/28 07:50:31;;;;;;;3.47;2.53;;;18.10;50.20;;;;;;4877446;28;88379;-66
2022/03/28 07:52:58;;;;;;;3.28;2.65;;;18.10;50.20;;;;;;4875838;28;89750;-66
2022/03/28 07:55:25;;;;;;;4.85;3.03;;;18.00;50.20;;;;;;4876138;28;89760;-66
2022/03/28 07:57:51;;;;;;;4.75;2.80;;;18.00;50.20;;;;;;4875360;28;88643;-66
2022/03/28 08:00:19;;;;;;;3.88;3.00;;;18.00;50.20;;;;;;4877217;28;87838;-66
2022/03/28 08:02:44;;;;;;;5.22;3.47;;;18.00;50.20;;;;;;4875680;28;89598;-66
2022/03/28 08:05:10;;;;;;;5.22;3.70;;;18.00;50.20;;;;;;4876856;28;88497;-66
2022/03/28 08:07:36;;;;;;;3.72;3.05;;;18.00;50.20;;;;;;4875380;28;89277;-66
2022/03/28 08:10:05;;;;;;;4.78;3.58;;;18.00;50.20;;;;;;4876764;28;88133;-64
2022/03/28 08:12:31;;;;;;;5.00;3.75;;;18.00;50.30;;;;;;4876435;28;89388;-65
2022/03/28 08:14:57;;;;;;;4.80;3.85;;;18.00;50.30;;;;;;4876119;28;89611;-66
2022/03/28 08:17:23;;;;;;;5.97;3.92;;;18.00;50.30;;;;;;4875925;28;88210;-65
2022/03/28 08:19:49;;;;;;;6.65;4.45;;;18.00;50.30;;;;;;4876139;28;88176;-65
2022/03/28 08:22:15;;;;;;;6.78;4.40;;;18.00;50.30;;;;;;4877051;28;88621;-68
2022/03/28 08:24:40;;;;;;;6.00;4.25;;;17.90;50.20;;;;;;4876098;28;89353;-66
2022/03/28 08:27:06;;;;;;;6.55;4.57;;;18.00;50.30;;;;;;4876275;28;96855;-66
2022/03/28 08:29:32;;;;;;;6.68;4.28;;;17.90;50.20;;;;;;4875661;28;88539;-65
2022/03/28 08:32:00;;;;;;;5.35;4.15;;;17.90;50.20;;;;;;4875769;28;90487;-65
2022/03/28 08:34:26;;;;;;;6.93;4.70;;;17.90;50.30;;;;;;4875325;28;91410;-65
2022/03/28 08:36:52;;;;;;;6.68;4.50;;;17.90;50.30;;;;;;4876241;28;88217;-66
2022/03/28 08:39:17;;;;;;;6.53;5.32;;;17.90;50.40;;;;;;4875423;28;88587;-66
2022/03/28 08:41:47;;;;;;;8.05;5.30;;;17.90;50.30;;;;;;4876574;28;89067;-66
2022/03/28 08:44:13;;;;;;;7.10;5.10;;;17.90;50.40;;;;;;4876083;28;89554;-66
2022/03/28 08:46:43;;;;;;;7.40;5.13;;;17.90;50.40;;;;;;4876387;28;88295;-66
2022/03/28 08:49:09;;;;;;;7.45;4.90;;;17.90;50.40;;;;;;4859534;28;87674;-66
2022/03/28 08:51:36;;;;;;;8.15;5.63;;;17.90;50.40;;;;;;4876407;28;88722;-65
2022/03/28 08:54:03;;;;;;;7.20;5.60;;;17.90;50.40;;;;;;4875546;28;89683;-66
2022/03/28 08:56:28;;;;;;;6.13;4.78;;;17.90;50.40;;;;;;4876298;28;89568;-66
2022/03/28 08:58:54;;;;;;;7.63;5.22;;;17.90;50.40;;;;;;4875897;28;88017;-66
2022/03/28 09:01:21;;;;;;;7.32;5.00;;;17.90;50.40;;;;;;4875893;28;98423;-68
2022/03/28 09:03:48;;;;;;;7.50;5.30;;;17.90;50.40;;;;;;4875310;28;90406;-65
2022/03/28 09:06:37;;;;;;;7.50;5.70;;;17.90;50.40;;;;;;4876124;28;88668;-66
2022/03/28 09:09:12;;;;;;;8.82;5.68;;;17.90;50.40;;;;;;4876615;28;88270;-66
2022/03/28 09:11:38;;;;;;;7.43;5.72;;;17.90;50.40;;;;;;4875159;28;89978;-66
2022/03/28 09:14:04;;;;;;;7.20;5.75;;;17.90;50.40;;;;;;4875497;28;88619;-66
2022/03/28 09:16:34;;;;;;;8.35;5.97;;;17.90;50.50;;;;;;4875470;28;88588;-66
2022/03/28 09:19:08;;;;;;;8.45;5.90;;;17.90;50.50;;;;;;4875470;28;88227;-66
2022/03/28 09:21:35;;;;;;;7.53;5.68;;;17.90;50.40;;;;;;4874956;28;90323;-66
2022/03/28 09:24:04;;;;;;;8.30;6.18;;;17.80;50.40;;;;;;4874640;28;90370;-67
2022/03/28 09:26:30;;;;;;;10.27;6.30;;;17.90;50.40;;;;;;4875421;28;88529;-66
2022/03/28 09:29:01;;;;;;;7.63;6.10;;;17.90;50.40;;;;;;4875412;28;88142;-66
2022/03/28 09:31:34;;;;;;;8.50;6.30;;;17.90;50.40;;;;;;4875370;28;89827;-66
2022/03/28 09:34:02;;;;;;;7.60;6.05;;;17.90;50.40;;;;;;4874420;28;89426;-66
2022/03/28 09:36:48;;;;;;;10.07;6.30;;;17.90;50.40;;;;;;4875706;28;89092;-66
2022/03/28 09:39:22;;;;;;;8.95;6.22;;;17.90;50.40;;;;;;4875350;28;87656;-66
2022/03/28 09:41:57;;;;;;;9.38;6.43;;;17.90;50.40;;;;;;4874955;28;89554;-66
2022/03/28 09:44:53;;;;;;;9.50;6.80;;;17.90;50.30;;;;;;4875054;28;90132;-66
2022/03/28 09:47:23;;;;;;;8.77;6.60;;;17.90;50.30;;;;;;4875028;28;88909;-66
2022/03/28 09:49:53;;;;;;;8.68;6.50;;;17.90;50.30;;;;;;4875063;28;88485;-66
2022/03/28 09:52:25;;;;;;;9.63;6.93;;;17.90;50.20;;;;;;4874595;28;89877;-67
2022/03/28 09:55:00;;;;;;;9.43;6.82;;;17.90;50.20;;;;;;4874540;28;89434;-65
2022/03/28 09:57:32;;;;;;;9.13;6.78;;;17.90;50.20;;;;;;4875646;28;88801;-66
2022/03/28 10:00:19;;;;;;;10.20;7.05;;;17.90;50.20;;;;;;4874372;28;88406;-65
2022/03/28 10:02:46;;;;;;;9.32;7.13;;;17.90;50.10;;;;;;4874857;28;89788;-65
2022/03/28 10:05:13;;;;;;;9.98;7.35;;;17.90;50.10;;;;;;4875162;28;88270;-66
2022/03/28 10:07:39;;;;;;;10.27;6.90;;;17.90;50.20;;;;;;4873631;28;88250;-66
2022/03/28 10:10:06;;;;;;;10.10;6.90;;;17.90;50.10;;;;;;4875269;28;88181;-66
2022/03/28 10:12:32;;;;;;;9.23;7.13;;;17.90;50.10;;;;;;4876632;28;91204;-66
2022/03/28 10:15:00;;;;;;;10.77;7.72;;;17.90;50.00;;;;;;4879060;28;89812;-67
2022/03/28 10:17:27;;;;;;;10.05;7.55;;;17.90;50.10;;;;;;4878334;28;88635;-66
2022/03/28 10:19:52;;;;;;;9.15;7.25;;;17.90;50.00;;;;;;4878526;28;88240;-66
2022/03/28 10:22:26;;;;;;;9.90;7.55;;;17.90;50.00;;;;;;4878446;28;90147;-66
2022/03/28 10:24:53;;;;;;;9.93;7.45;;;18.00;50.10;;;;;;4878057;28;88663;-66
2022/03/28 10:27:19;;;;;;;10.38;7.60;;;17.90;50.10;;;;;;4878257;28;88361;-66
2022/03/28 10:29:45;;;;;;;9.82;7.97;;;17.90;50.00;;;;;;4879090;28;87414;-66
2022/03/28 10:32:16;;;;;;;11.75;7.50;;;18.00;50.10;;;;;;4878479;28;90336;-66
2022/03/28 10:34:51;;;;;;;10.27;7.53;;;18.00;50.10;;;;;;4878056;28;89851;-66
2022/03/28 10:37:35;;;;;;;11.55;7.30;;;18.00;50.10;;;;;;4877249;28;88980;-67
2022/03/28 10:40:18;;;;;;;11.45;7.47;;;18.00;50.00;;;;;;4878024;28;88622;-67
2022/03/28 10:42:55;;;;;;;10.40;7.72;;;18.00;50.00;;;;;;4861043;28;88719;-66
2022/03/28 10:45:30;;;;;;;11.88;8.55;;;18.00;50.00;;;;;;4877211;28;89704;-67
2022/03/28 10:47:58;;;;;;;10.68;7.88;;;18.00;50.00;;;;;;4878195;28;88765;-66
2022/03/28 10:50:29;;;;;;;10.82;7.97;;;18.00;50.00;;;;;;4877997;28;88518;-66
2022/03/28 10:53:15;;;;;;;11.95;8.43;;;18.00;50.00;;;;;;4878309;28;90053;-66
2022/03/28 10:55:48;;;;;;;9.57;7.63;;;18.00;50.00;;;;;;4878480;28;89531;-67
2022/03/28 10:58:16;;;;;;;12.32;9.10;;;18.00;50.00;;;;;;4877870;28;88182;-66
2022/03/28 11:01:07;;;;;;;10.90;8.10;;;18.00;50.00;;;;;;4877689;28;88627;-66
2022/03/28 11:03:37;;;;;;;12.23;8.32;;;18.00;50.00;;;;;;4877124;28;90380;-67
2022/03/28 11:06:04;;;;;;;12.30;8.13;;;18.00;50.00;;;;;;4878060;28;89144;-64
2022/03/28 11:08:38;;;;;;;13.00;8.75;;;18.00;50.00;;;;;;4877595;28;88485;-66
2022/03/28 11:11:27;;;;;;;13.15;8.68;;;18.00;49.90;;;;;;4877971;28;88128;-67
2022/03/28 11:13:57;;;;;;;13.25;8.82;;;18.00;49.90;;;;;;4878454;28;89763;-66
2022/03/28 11:16:38;;;;;;;11.55;8.35;;;18.00;50.00;;;;;;4860659;28;91629;-66
2022/03/28 11:19:20;;;;;;;11.82;8.55;;;18.10;50.00;;;;;;4877354;28;88698;-65
2022/03/28 11:21:56;;;;;;;11.65;8.82;;;18.10;50.00;;;;;;4877797;28;87459;-66
2022/03/28 11:24:40;;;;;;;13.07;9.05;;;18.10;50.00;;;;;;4876805;28;89664;-66
2022/03/28 11:27:06;;;;;;;11.45;8.50;;;18.10;49.90;;;;;;4878141;28;89001;-64
2022/03/28 11:29:32;;;;;;;12.52;7.90;;;18.10;50.00;;;;;;4859653;28;89314;-65
2022/03/28 11:32:11;;;;;;;12.63;8.25;;;18.10;49.90;;;;;;4878113;28;88435;-68
2022/03/28 11:34:37;;;;;;;10.77;7.82;;;18.20;49.90;;;;;;4877022;28;88998;-66
2022/03/28 11:37:04;;;;;;;11.20;7.82;;;18.20;49.90;;;;;;4877383;28;89559;-66
2022/03/28 11:39:32;;;;;;;10.80;7.97;;;18.20;49.80;;;;;;4877018;28;88036;-67
2022/03/28 11:42:01;;;;;;;11.63;8.30;;;18.20;50.80;;;;;;4877206;28;89596;-66
2022/03/28 11:44:27;;;;;;;11.68;8.40;;;18.20;49.70;;;;;;4877658;28;90302;-66
2022/03/28 11:46:57;;;;;;;11.98;8.55;;;18.30;50.80;;;;;;4877234;28;88863;-67
2022/03/28 11:49:23;;;;;;;11.60;8.38;;;18.30;50.70;;;;;;4876860;28;88739;-66
2022/03/28 11:51:50;;;;;;;12.00;8.27;;;18.30;49.80;;;;;;4877163;28;88456;-66
2022/03/28 11:54:21;;;;;;;11.98;8.75;;;18.30;49.70;;;;;;4876932;28;90694;-66
2022/03/28 11:59:42;;;;;;;11.48;7.90;;;18.30;49.60;;;;;;4878206;28;88788;-67
2022/03/28 12:02:08;;;;;;;11.77;8.30;;;18.30;49.60;;;;;;4876865;28;88431;-66
2022/03/28 12:04:42;;;;;;;10.27;8.00;;;18.40;49.60;;;;;;4876557;28;90578;-66
2022/03/28 12:07:08;;;;;;;11.43;8.35;;;18.40;49.60;;;;;;4876896;28;89545;-66
2022/03/28 12:09:34;;;;;;;11.30;8.43;;;18.40;49.60;;;;;;4877200;28;88542;-66
2022/03/28 12:12:01;;;;;;;11.45;8.38;;;18.30;49.50;;;;;;4877142;28;87321;-66
2022/03/28 12:14:29;;;;;;;11.95;7.68;;;18.40;49.50;;;;;;4875608;28;89678;-66
2022/03/28 12:16:57;;;;;;;10.55;8.15;;;18.40;49.50;;;;;;4876162;28;89422;-66
2022/03/28 12:19:25;;;;;;;11.55;8.43;;;18.40;49.50;;;;;;4874909;28;89126;-67
2022/03/28 12:21:52;;;;;;;11.20;7.95;;;18.40;49.50;;;;;;4876764;28;88126;-67
2022/03/28 12:24:20;;;;;;;10.18;7.68;;;18.40;49.50;;;;;;4875665;28;89853;-66
2022/03/28 12:26:47;;;;;;;10.90;7.85;;;18.40;49.60;;;;;;4875882;28;90149;-67
2022/03/28 12:29:14;;;;;;;10.50;7.68;;;18.40;49.40;;;;;;4876345;28;88710;-67
2022/03/28 12:31:48;;;;;;;11.23;7.53;;;18.40;49.40;;;;;;4876620;28;88117;-66
2022/03/28 12:34:23;;;;;;;10.85;7.43;;;18.50;49.40;;;;;;4874842;28;90143;-67
2022/03/28 12:36:49;;;;;;;11.43;7.95;;;18.40;49.40;;;;;;4876514;28;89296;-66
2022/03/28 12:39:14;;;;;;;10.05;7.30;;;18.40;49.50;;;;;;4875321;28;88715;-66
2022/03/28 12:41:46;;;;;;;10.48;7.55;;;18.40;49.50;;;;;;4876166;28;88173;-67
2022/03/28 12:44:13;;;;;;;10.15;7.80;;;18.50;49.50;;;;;;4874646;28;90420;-67
2022/03/28 12:46:39;;;;;;;9.90;7.65;;;18.40;49.40;;;;;;4876298;28;90731;-66
2022/03/28 12:49:16;;;;;;;8.90;7.35;;;18.40;49.40;;;;;;4876082;28;88188;-66
2022/03/28 12:51:41;;;;;;;10.63;7.63;;;18.50;49.40;;;;;;4877885;28;88037;-66
2022/03/28 12:54:15;;;;;;;10.60;7.38;;;18.50;49.40;;;;;;4878755;28;88397;-66
2022/03/28 12:56:43;;;;;;;9.85;7.00;;;18.50;49.50;;;;;;4877854;28;89066;-66
2022/03/28 12:59:09;;;;;;;10.32;7.35;;;18.50;49.40;;;;;;4876118;28;88532;-66
2022/03/28 13:01:35;;;;;;;10.07;6.97;;;18.50;49.40;;;;;;4876087;28;87710;-67
2022/03/28 13:04:27;;;;;;;9.45;7.10;;;18.50;49.40;;;;;;4875720;28;88799;-66
2022/03/28 13:07:02;;;;;;;10.05;6.82;;;18.50;49.40;;;;;;4875848;28;89809;-66
2022/03/28 13:09:27;;;;;;;10.80;6.80;;;18.50;49.40;;;;;;4874884;28;88923;-66
2022/03/28 13:11:53;;;;;;;9.60;7.20;;;18.50;49.40;;;;;;4876673;28;88165;-66
2022/03/28 13:14:45;;;;;;;9.65;6.40;;;18.50;49.30;;;;;;4875619;28;89449;-67
2022/03/28 13:17:13;;;;;;;9.98;7.18;;;18.60;49.40;;;;;;4876186;28;88938;-68
2022/03/28 13:19:41;;;;;;;10.07;6.68;;;18.50;49.40;;;;;;4874623;28;88252;-66
2022/03/28 13:22:09;;;;;;;9.40;6.80;;;18.60;49.40;;;;;;4876367;28;88630;-66
2022/03/28 13:24:36;;;;;;;8.63;6.35;;;18.60;49.30;;;;;;4874808;28;89480;-68
2022/03/28 13:29:50;;;;;;;7.70;6.25;;;18.60;49.30;;;;;;4875233;28;88102;-66
2022/03/28 13:32:16;;;;;;;9.82;6.65;;;18.60;49.30;;;;;;4875137;28;88117;-66
2022/03/28 13:34:42;;;;;;;8.75;6.22;;;18.60;49.20;;;;;;4874516;28;89621;-66
2022/03/28 13:37:07;;;;;;;7.35;6.35;;;18.60;49.20;;;;;;4874849;28;89279;-66
2022/03/28 13:39:35;;;;;;;8.48;6.15;;;18.60;49.20;;;;;;4875643;28;88885;-67
2022/03/28 13:42:01;;;;;;;8.48;6.43;;;18.70;49.30;;;;;;4858024;28;88661;-66
2022/03/28 13:44:27;;;;;;;8.30;6.32;;;18.70;49.20;;;;;;4875731;28;88775;-66
2022/03/28 13:46:52;;;;;;;9.07;6.70;;;18.70;50.20;;;;;;4877235;28;92009;-66
2022/03/28 13:49:19;;;;;;;7.82;5.97;;;18.70;49.20;;;;;;4878626;28;95677;-67
2022/03/28 13:51:45;;;;;;;7.38;5.95;;;18.70;49.20;;;;;;4879671;28;87333;-67
2022/03/28 13:54:11;;;;;;;8.23;6.07;;;18.70;49.10;;;;;;4879344;28;88533;-66
2022/03/28 13:56:38;;;;;;;8.95;5.95;;;18.70;49.20;;;;;;4878305;28;89741;-67